Terminal Aerodrome Forecast
Issued by NWS

Home | Current Version | Previous Version | Text Only | Print | Product List | Glossary On
Versions: 1 2 3 4 5 6 7 8 9 10 11 12 13 14 15 16 17 18
000
FTUS43 KDTX 292121 AAA
TAFMBS
TAF AMD
KMBS 292121Z 2921/3018 20010KT P6SM SCT050 BKN100 OVC200
     FM292300 20010KT 4SM SHRA OVC030
     FM300600 23010KT P6SM OVC030
     FM301600 30014KT P6SM OVC030=

USA.gov is the U.S. government's official web portal to all federal, state and local government web resources and services.